Saturday, January 20, 2018, 2:56 PM GMT
Back to Local

CWIS, Charlevoix CS , Que.

Location: , , Canada Lat: 47.283
Local Time: 2:56 PM GMT (14:56 GMT) Lon: -70.633
Time Zone: GMT Elev: 2358 ft

Show me the last for .
Show Decoded

2018-01-20 14:00 METAR CWIS 201400Z AUTO 24008G21KT M05/M05 RMK AO1 5PAST HR SOG 24 3015 PK WND
                 23021/1351 SLP922 P0002 T10501050 50005 =
2018-01-20 13:00 METAR CWIS 201300Z AUTO 25007G16KT M05/M05 RMK AO1 SOG 24 3017 PK WND 25020/1245
                 SLP917 T10521052 =
2018-01-20 12:00 METAR CWIS 201200Z AUTO 25009G20KT M05/M05 RMK AO1 SOG 24 6014 PK WND 24023/1117
                 SLP906 T10521052 50024 =
2018-01-20 11:00 METAR CWIS 201100Z AUTO 24011G25KT M05/M05 RMK AO1 SOG 25 5042 PK WND 26025/1053
                 SLP906 T10531053 50024 =
2018-01-20 10:00 METAR CWIS 201000Z AUTO 24009G17KT M06/M06 RMK AO1 1PAST HR PRESFR SOG 26 8061
                 PK WND 21023/0933 SLP900 P0004 T10631063 50024 =
2018-01-20 09:00 METAR CWIS 200900Z AUTO 22010G17KT M07/M07 RMK AO1 4PAST HR PRESFR SOG 25 8043
                 PK WND 24021/0823 SLP922 P0005 T10671067 50014 =
2018-01-20 08:00 METAR CWIS 200800Z AUTO 22008G16KT M07/M07 RMK AO1 SOG 25 6034 PK WND 21018/0738
                 SLP953 T10671067 =
2018-01-20 07:00 METAR CWIS 200700Z AUTO 23008G16KT M07/M07 RMK AO1 SOG 25 6035 PK WND 22021/0643
                 SLP967 T10691069 =
2018-01-20 06:00 METAR CWIS 200600Z AUTO 22008G15KT M07/M07 RMK AO1 SOG 25 8044 PK WND 23018/0514
                 SLP970 T10681068 50005 =
2018-01-20 05:00 METAR CWIS 200500Z AUTO 23006KT M07/M07 RMK AO1 5PAST HR SOG 25 8034 SLP991
                 P0002 T10691069 50005 =
2018-01-20 04:00 METAR CWIS 200400Z AUTO 22007KT M07/M07 RMK AO1 SOG 25 7031 PK WND 23017/0341
                 SLP007 T10741074 =
2018-01-20 03:00 METAR CWIS 200300Z AUTO 22007KT M08/M08 RMK AO1 SOG 24 8028 SLP020 T10791079 =
2018-01-20 02:00 METAR CWIS 200200Z AUTO 22006KT M08/M08 RMK AO1 SOG 24 8019 SLP031 T10811082 =
2018-01-20 01:00 METAR CWIS 200100Z AUTO 22006KT M08/M08 RMK AO1 SOG 24 8014 SLP043 T10821083 =
2018-01-20 00:00 METAR CWIS 200000Z AUTO 23005KT M08/M08 RMK AO1 SOG 24 6012 SLP052 T10831084 =
2018-01-19 23:00 METAR CWIS 192300Z AUTO 22004KT M09/M09 RMK AO1 SOG 24 8015 SLP052 T10861087 =
2018-01-19 22:00 METAR CWIS 192200Z AUTO 22005KT M09/M09 RMK AO1 SOG 25 8008 SLP059 T10871088 =
2018-01-19 21:00 METAR CWIS 192100Z AUTO 22004KT M08/M08 RMK AO1 SOG 25 6007 SLP065 T10831084 =
2018-01-19 20:00 METAR CWIS 192000Z AUTO 22004KT M08/M08 RMK AO1 SOG 25 5011 SLP069 T10821082 =
2018-01-19 19:00 METAR CWIS 191900Z AUTO 23003KT M08/M08 RMK AO1 SOG 25 8016 SLP068 T10791080 =
2018-01-19 18:00 METAR CWIS 191800Z AUTO 22004KT M09/M09 RMK AO1 SOG 25 8015 SLP074 T10861088 =
2018-01-19 17:00 METAR CWIS 191700Z AUTO 21005KT M09/M09 RMK AO1 SOG 25 8009 SLP083 T10921093 =
2018-01-19 16:00 METAR CWIS 191600Z AUTO 21004KT M09/M09 RMK AO1 SOG 24 8002 SLP087 T10921094 =
2018-01-19 15:00 METAR CWIS 191500Z AUTO 20004KT M10/M10 RMK AO1 SOG 24 0003 SLP092 T10971099 =

Support USWX by starting your Amazon purchase here.